createdAt,value
2023-01-17T00:01:53.871Z,2.40
2023-01-17T00:04:39.980Z,4.13
2023-01-17T00:07:29.502Z,2.33
2023-01-17T00:09:58.877Z,1.77
2023-01-17T00:12:31.135Z,2.47
2023-01-17T00:15:00.786Z,1.43
2023-01-17T00:17:30.687Z,1.60
2023-01-17T00:20:19.258Z,2.30
2023-01-17T00:23:05.961Z,2.77
2023-01-17T00:25:55.845Z,1.90
2023-01-17T00:28:25.252Z,5.80
2023-01-17T00:30:52.859Z,2.17
2023-01-17T00:33:21.780Z,4.00
2023-01-17T00:35:48.993Z,2.90
2023-01-17T00:38:18.119Z,1.97
2023-01-17T00:40:46.591Z,1.83
2023-01-17T00:43:33.912Z,1.57
2023-01-17T00:46:21.582Z,1.60
2023-01-17T00:49:07.444Z,1.67
2023-01-17T00:51:54.376Z,3.57
2023-01-17T00:54:40.392Z,2.27
2023-01-17T00:57:27.012Z,1.43
2023-01-17T01:00:12.607Z,2.27
2023-01-17T01:03:00.343Z,1.97
2023-01-17T01:05:48.422Z,1.20
2023-01-17T01:08:36.248Z,0.90
2023-01-17T01:11:24.699Z,0.80
2023-01-17T01:14:10.958Z,0.90
2023-01-17T01:16:56.955Z,0.53
2023-01-17T01:19:44.445Z,0.60
2023-01-17T01:22:30.332Z,1.23
2023-01-17T01:25:16.392Z,1.17
2023-01-17T01:28:02.275Z,0.60
2023-01-17T01:30:48.235Z,1.00
2023-01-17T01:33:21.375Z,0.30
2023-01-17T01:35:52.532Z,0.53
2023-01-17T01:38:22.742Z,0.50
2023-01-17T01:40:54.185Z,0.23
2023-01-17T01:43:45.401Z,0.80
2023-01-17T01:46:17.892Z,0.20
2023-01-17T01:48:51.280Z,0.40
2023-01-17T01:51:26.833Z,0.40
2023-01-17T01:54:00.796Z,0.10
2023-01-17T01:56:30.506Z,0.30
2023-01-17T01:59:03.919Z,0.40
2023-01-17T02:01:32.791Z,0.70
2023-01-17T02:04:01.326Z,0.17
2023-01-17T02:06:36.201Z,0.10
2023-01-17T02:09:08.208Z,0.10
2023-01-17T02:11:38.310Z,0.30
2023-01-17T02:14:06.935Z,0.20
2023-01-17T02:16:48.628Z,0.00
2023-01-17T02:19:43.776Z,0.67
2023-01-17T02:22:37.384Z,0.00
2023-01-17T02:25:24.699Z,1.10
2023-01-17T02:28:13.958Z,0.20
2023-01-17T02:30:49.319Z,0.23
2023-01-17T02:33:26.271Z,0.17
2023-01-17T02:36:07.186Z,0.77
2023-01-17T02:38:44.978Z,0.20
2023-01-17T02:41:20.239Z,0.10
2023-01-17T02:43:51.477Z,0.10
2023-01-17T02:46:21.419Z,0.60
2023-01-17T02:48:50.841Z,0.87
2023-01-17T02:51:40.928Z,1.17
2023-01-17T02:54:46.337Z,1.60
2023-01-17T02:57:39.799Z,4.20
2023-01-17T03:00:17.221Z,3.27
2023-01-17T03:02:56.226Z,1.83
2023-01-17T03:05:30.476Z,3.17
2023-01-17T03:07:59.643Z,2.97
2023-01-17T03:10:28.747Z,2.90
2023-01-17T03:13:00.894Z,1.83
2023-01-17T03:15:29.799Z,2.83
2023-01-17T03:18:03.079Z,1.83
2023-01-17T03:20:31.411Z,2.13
2023-01-17T03:22:59.805Z,2.53
2023-01-17T03:25:28.350Z,1.83
2023-01-17T03:27:56.987Z,3.43
2023-01-17T03:30:25.620Z,1.67
2023-01-17T03:32:53.995Z,1.53
2023-01-17T03:35:31.137Z,2.13
2023-01-17T03:37:59.624Z,2.53
2023-01-17T03:40:28.082Z,1.80
2023-01-17T03:42:56.626Z,2.07
2023-01-17T03:45:24.940Z,1.90
2023-01-17T03:47:53.859Z,3.07
2023-01-17T03:50:22.181Z,3.30
2023-01-17T03:52:52.194Z,1.70
2023-01-17T03:55:20.777Z,1.70
2023-01-17T03:57:49.106Z,2.30
2023-01-17T04:00:18.174Z,1.80
2023-01-17T04:02:46.508Z,5.43
2023-01-17T04:05:15.183Z,2.60
2023-01-17T04:07:44.355Z,1.70
2023-01-17T04:10:14.115Z,1.60
2023-01-17T04:12:42.683Z,1.97
2023-01-17T04:15:11.837Z,7.27
2023-01-17T04:17:40.648Z,2.67
2023-01-17T04:20:15.256Z,5.97
2023-01-17T04:22:44.440Z,6.50
2023-01-17T04:25:14.399Z,6.97
2023-01-17T04:27:42.742Z,5.50
2023-01-17T04:30:12.556Z,4.03
2023-01-17T04:32:40.965Z,2.77
2023-01-17T04:35:10.009Z,5.57
2023-01-17T04:37:38.724Z,2.33
2023-01-17T04:40:08.283Z,2.10
2023-01-17T04:42:38.522Z,1.63
2023-01-17T04:45:08.274Z,3.63
2023-01-17T04:47:36.628Z,2.30
2023-01-17T04:50:05.423Z,2.37
2023-01-17T04:52:33.787Z,1.73
2023-01-17T04:55:02.214Z,1.70
2023-01-17T04:57:34.224Z,3.43
2023-01-17T05:00:04.442Z,2.70
2023-01-17T05:02:36.784Z,2.23
2023-01-17T05:05:05.523Z,2.30
2023-01-17T05:07:35.768Z,1.80
2023-01-17T05:10:04.704Z,9.10
2023-01-17T05:12:33.050Z,2.53
2023-01-17T05:15:01.410Z,2.50
2023-01-17T05:17:31.243Z,6.17
2023-01-17T05:19:59.563Z,12.83
2023-01-17T05:22:27.897Z,7.47
2023-01-17T05:24:56.160Z,6.87
2023-01-17T05:27:24.512Z,4.60
2023-01-17T05:29:53.308Z,2.40
2023-01-17T05:32:21.688Z,2.63
2023-01-17T05:34:51.683Z,3.57
2023-01-17T05:37:20.029Z,2.00
2023-01-17T05:39:48.335Z,2.80
2023-01-17T05:42:16.713Z,1.50
2023-01-17T05:44:45.024Z,3.80
2023-01-17T05:47:13.368Z,3.80
2023-01-17T05:49:42.034Z,3.50
2023-01-17T05:52:12.639Z,3.67
2023-01-17T05:54:40.970Z,3.80
2023-01-17T05:57:09.291Z,7.67
2023-01-17T05:59:37.783Z,6.23
2023-01-17T06:02:06.207Z,4.27
2023-01-17T06:04:35.025Z,5.00
2023-01-17T06:07:03.481Z,5.23
2023-01-17T06:09:33.183Z,6.17
2023-01-17T06:12:01.559Z,4.60
2023-01-17T06:14:30.026Z,2.67
2023-01-17T06:16:58.457Z,2.97
2023-01-17T06:19:27.154Z,2.10
2023-01-17T06:21:55.526Z,6.70
2023-01-17T06:24:23.880Z,6.10
2023-01-17T06:26:53.838Z,2.10
2023-01-17T06:29:22.152Z,3.93
2023-01-17T06:31:50.891Z,2.30
2023-01-17T06:34:19.319Z,1.80
2023-01-17T06:36:47.730Z,4.50
2023-01-17T06:39:16.080Z,3.10
2023-01-17T06:41:44.436Z,3.47
2023-01-17T06:44:14.422Z,2.37
2023-01-17T06:46:43.461Z,2.23
2023-01-17T06:49:11.852Z,2.73
2023-01-17T06:51:42.224Z,2.17
2023-01-17T06:54:12.343Z,4.10
2023-01-17T06:56:41.746Z,3.17
2023-01-17T06:59:10.105Z,4.50
2023-01-17T07:01:39.906Z,1.80
2023-01-17T07:04:08.330Z,2.50
2023-01-17T07:06:37.330Z,6.40
2023-01-17T07:09:06.022Z,2.90
2023-01-17T07:11:34.437Z,4.87
2023-01-17T07:14:02.883Z,3.60
2023-01-17T07:16:31.295Z,3.07
2023-01-17T07:19:01.069Z,2.53
2023-01-17T07:21:29.402Z,5.63
2023-01-17T07:23:57.713Z,1.97
2023-01-17T07:26:26.231Z,2.23
2023-01-17T07:28:54.535Z,3.23
2023-01-17T07:31:22.864Z,3.67
2023-01-17T07:33:51.279Z,2.47
2023-01-17T07:36:20.986Z,3.70
2023-01-17T07:38:49.383Z,2.83
2023-01-17T07:41:17.722Z,2.50
2023-01-17T07:43:46.042Z,3.20
2023-01-17T07:46:15.301Z,3.73
2023-01-17T07:48:43.709Z,2.27
2023-01-17T07:51:12.112Z,2.23
2023-01-17T07:53:41.827Z,2.33
2023-01-17T07:56:10.197Z,2.43
2023-01-17T07:58:38.648Z,4.20
2023-01-17T08:01:09.163Z,2.97
2023-01-17T08:03:40.011Z,1.80
2023-01-17T08:06:17.524Z,5.17
2023-01-17T08:08:47.283Z,1.47
2023-01-17T08:11:15.691Z,2.57
2023-01-17T08:13:47.065Z,2.60
2023-01-17T08:16:15.560Z,1.73
2023-01-17T08:18:43.931Z,2.43
2023-01-17T08:21:15.360Z,3.00
2023-01-17T08:23:43.886Z,2.00
2023-01-17T08:26:21.469Z,2.50
2023-01-17T08:28:54.963Z,2.40
2023-01-17T08:31:23.735Z,2.53
2023-01-17T08:33:52.222Z,2.07
2023-01-17T08:36:20.759Z,2.47
2023-01-17T08:38:52.704Z,3.73
2023-01-17T08:41:23.244Z,3.10
2023-01-17T08:43:52.899Z,2.93
2023-01-17T08:46:21.235Z,2.17
2023-01-17T08:48:53.761Z,2.10
2023-01-17T08:51:22.330Z,3.13
2023-01-17T08:53:50.792Z,3.00
2023-01-17T08:56:19.469Z,2.23
2023-01-17T08:58:49.138Z,3.50
2023-01-17T09:01:17.789Z,2.37
2023-01-17T09:03:46.271Z,2.43
2023-01-17T09:06:16.452Z,2.77
2023-01-17T09:08:47.081Z,2.00
2023-01-17T09:11:17.602Z,2.23
2023-01-17T09:13:45.990Z,2.30
2023-01-17T09:16:15.699Z,3.07
2023-01-17T09:18:44.089Z,3.03
2023-01-17T09:21:13.765Z,4.23
2023-01-17T09:23:42.893Z,2.60
2023-01-17T09:26:18.452Z,3.60
2023-01-17T09:28:46.795Z,3.87
2023-01-17T09:31:17.709Z,5.47
2023-01-17T09:33:46.370Z,13.03
2023-01-17T09:36:15.626Z,15.57
2023-01-17T09:38:44.634Z,5.87
2023-01-17T09:41:23.973Z,6.10
2023-01-17T09:43:57.713Z,6.03
2023-01-17T09:46:32.012Z,5.13
2023-01-17T09:49:07.370Z,3.37
2023-01-17T09:51:37.302Z,6.03
2023-01-17T09:54:06.056Z,7.87
2023-01-17T09:56:38.497Z,15.83
2023-01-17T09:59:19.878Z,5.73
2023-01-17T10:01:58.889Z,3.60
2023-01-17T10:04:43.752Z,4.77
2023-01-17T10:07:29.442Z,4.57
2023-01-17T10:10:11.039Z,2.83
2023-01-17T10:12:51.886Z,3.60
2023-01-17T10:15:49.350Z,3.03
2023-01-17T10:18:34.432Z,4.27
2023-01-17T10:21:07.128Z,5.87
2023-01-17T10:24:04.682Z,7.23
2023-01-17T10:26:34.894Z,6.77
2023-01-17T10:29:06.994Z,5.70
2023-01-17T10:31:44.488Z,2.10
2023-01-17T10:34:20.293Z,5.67
2023-01-17T10:36:53.711Z,5.20
2023-01-17T10:39:24.483Z,4.77
2023-01-17T10:41:57.968Z,3.37
2023-01-17T10:44:33.286Z,3.27
2023-01-17T10:47:12.013Z,4.70
2023-01-17T10:49:47.681Z,4.57
2023-01-17T10:52:26.747Z,4.60
2023-01-17T10:55:04.957Z,3.63
2023-01-17T10:57:40.579Z,3.57
2023-01-17T11:00:26.504Z,3.47
2023-01-17T11:02:55.971Z,3.60
2023-01-17T11:05:29.041Z,5.77
2023-01-17T11:08:02.837Z,3.87
2023-01-17T11:10:37.987Z,11.07
2023-01-17T11:13:20.759Z,4.60
2023-01-17T11:15:51.503Z,3.07
2023-01-17T11:18:21.921Z,3.93
2023-01-17T11:20:52.088Z,3.03
2023-01-17T11:23:24.026Z,4.57
2023-01-17T11:25:55.161Z,2.63
2023-01-17T11:28:26.609Z,3.40
2023-01-17T11:30:57.082Z,5.23
2023-01-17T11:33:45.407Z,7.30
2023-01-17T11:36:20.804Z,2.83
2023-01-17T11:38:57.285Z,1.13
2023-01-17T11:41:28.125Z,3.17
2023-01-17T11:43:59.069Z,3.27
2023-01-17T11:46:29.712Z,2.50
2023-01-17T11:48:59.969Z,3.03
2023-01-17T11:51:32.701Z,2.07
2023-01-17T11:54:14.807Z,2.37
2023-01-17T11:56:48.466Z,3.97
2023-01-17T11:59:27.363Z,2.87
2023-01-17T12:02:16.240Z,5.43
2023-01-17T12:04:48.634Z,2.03
2023-01-17T12:07:29.470Z,1.23
2023-01-17T12:10:06.429Z,2.73
2023-01-17T12:13:04.246Z,28.90
2023-01-17T12:15:48.201Z,1.20
2023-01-17T12:18:34.489Z,2.70
2023-01-17T12:21:26.424Z,1.83
2023-01-17T12:24:17.695Z,3.67
2023-01-17T12:26:55.733Z,2.77
2023-01-17T12:29:45.046Z,2.63
2023-01-17T12:32:44.918Z,4.83
2023-01-17T12:35:17.427Z,1.37
2023-01-17T12:38:03.763Z,2.83
2023-01-17T12:40:40.017Z,1.90
2023-01-17T12:43:15.534Z,3.23
2023-01-17T12:45:45.730Z,1.80
2023-01-17T12:48:18.451Z,3.40
2023-01-17T12:50:53.880Z,3.60
2023-01-17T12:53:32.696Z,1.73
2023-01-17T12:56:09.526Z,1.73
2023-01-17T12:58:42.653Z,4.40
2023-01-17T13:01:25.023Z,4.20
2023-01-17T13:04:03.482Z,8.90
2023-01-17T13:06:37.113Z,6.83
2023-01-17T13:09:06.785Z,5.53
2023-01-17T13:11:44.061Z,3.10
2023-01-17T13:14:12.488Z,5.83
2023-01-17T13:16:45.283Z,2.33
2023-01-17T13:19:22.585Z,4.13
2023-01-17T13:21:51.690Z,4.93
2023-01-17T13:24:30.096Z,6.20
2023-01-17T13:27:17.008Z,3.77
2023-01-17T13:29:59.434Z,2.47
2023-01-17T13:32:49.799Z,4.33
2023-01-17T13:35:27.700Z,5.03
2023-01-17T13:38:10.323Z,5.40
2023-01-17T13:40:50.122Z,5.43
2023-01-17T13:43:25.744Z,6.03
2023-01-17T13:45:56.315Z,5.00
2023-01-17T13:48:31.006Z,3.50
2023-01-17T13:51:02.195Z,3.20
2023-01-17T13:53:58.360Z,4.17
2023-01-17T13:56:34.626Z,16.53
2023-01-17T13:59:06.516Z,16.97
2023-01-17T14:01:52.696Z,19.30
2023-01-17T14:04:25.600Z,17.83
2023-01-17T14:07:01.185Z,11.33
2023-01-17T14:09:39.188Z,13.57
2023-01-17T14:12:23.498Z,14.80
2023-01-17T14:14:56.932Z,13.90
2023-01-17T14:17:47.708Z,11.10
2023-01-17T14:20:48.358Z,10.97
2023-01-17T14:23:36.479Z,13.53
2023-01-17T14:26:49.894Z,14.53
2023-01-17T14:29:48.708Z,41.47
2023-01-17T14:32:21.056Z,13.40
2023-01-17T14:34:51.340Z,8.03
2023-01-17T14:37:34.688Z,16.87
2023-01-17T14:40:03.125Z,3.70
2023-01-17T14:42:34.280Z,6.00
2023-01-17T14:45:06.689Z,4.27
2023-01-17T14:47:39.826Z,4.33
2023-01-17T14:50:22.205Z,3.80
2023-01-17T14:53:15.955Z,3.47
2023-01-17T14:55:52.736Z,1.50
2023-01-17T14:58:23.061Z,1.50
2023-01-17T15:00:53.637Z,3.23
2023-01-17T15:03:23.688Z,2.73
2023-01-17T15:05:55.895Z,5.20
2023-01-17T15:08:30.745Z,6.97
2023-01-17T15:11:02.959Z,5.47
2023-01-17T15:13:43.833Z,2.87
2023-01-17T15:16:21.213Z,11.13
2023-01-17T15:18:51.648Z,5.73
2023-01-17T15:21:22.346Z,6.80
2023-01-17T15:23:54.277Z,5.27
2023-01-17T15:26:26.469Z,2.67
2023-01-17T15:29:03.948Z,3.30
2023-01-17T15:31:41.819Z,4.53
2023-01-17T15:34:23.648Z,4.63
2023-01-17T15:36:53.025Z,4.53
2023-01-17T15:39:24.511Z,3.63
2023-01-17T15:41:54.461Z,6.33
2023-01-17T15:44:46.421Z,7.33
2023-01-17T15:47:31.082Z,3.23
2023-01-17T15:50:02.529Z,2.93
2023-01-17T15:52:31.126Z,5.30
2023-01-17T15:55:12.223Z,4.07
2023-01-17T15:57:41.284Z,3.20
2023-01-17T16:00:21.915Z,6.70
2023-01-17T16:02:55.408Z,6.73
2023-01-17T16:05:44.803Z,7.77
2023-01-17T16:08:27.563Z,7.33
2023-01-17T16:10:59.393Z,6.17
2023-01-17T16:13:27.721Z,9.33
2023-01-17T16:16:10.073Z,6.37
2023-01-17T16:18:38.763Z,10.07
2023-01-17T16:21:18.595Z,8.73
2023-01-17T16:23:47.228Z,9.07
2023-01-17T16:26:16.557Z,8.47
2023-01-17T16:28:45.767Z,5.73
2023-01-17T16:31:14.406Z,4.83
2023-01-17T16:33:43.483Z,6.47
2023-01-17T16:36:16.390Z,6.37
2023-01-17T16:38:46.603Z,6.33
2023-01-17T16:41:14.995Z,12.70
2023-01-17T16:43:43.335Z,11.90
2023-01-17T16:46:13.402Z,8.33
2023-01-17T16:48:41.834Z,5.87
2023-01-17T16:51:10.208Z,9.23
2023-01-17T16:53:39.936Z,16.50
2023-01-17T16:56:13.673Z,21.93
2023-01-17T16:58:42.475Z,33.17
2023-01-17T17:01:16.616Z,10.30
2023-01-17T17:03:50.472Z,6.43
2023-01-17T17:06:19.112Z,4.10
2023-01-17T17:08:48.967Z,3.53
2023-01-17T17:11:19.457Z,5.30
2023-01-17T17:13:49.981Z,6.97
2023-01-17T17:16:20.416Z,12.63
2023-01-17T17:18:55.837Z,5.17
2023-01-17T17:21:24.316Z,11.73
2023-01-17T17:23:59.015Z,6.43
2023-01-17T17:26:30.977Z,3.83
2023-01-17T17:28:59.857Z,5.93
2023-01-17T17:31:28.750Z,9.93
2023-01-17T17:33:59.693Z,9.83
2023-01-17T17:36:28.101Z,9.20
2023-01-17T17:38:59.037Z,8.23
2023-01-17T17:41:28.904Z,14.23
2023-01-17T17:43:57.983Z,10.83
2023-01-17T17:46:27.333Z,7.97
2023-01-17T17:48:56.479Z,6.17
2023-01-17T17:51:26.888Z,6.17
2023-01-17T17:54:00.812Z,12.17
2023-01-17T17:56:30.513Z,10.70
2023-01-17T17:59:00.017Z,7.30
2023-01-17T18:01:29.278Z,8.93
2023-01-17T18:04:01.630Z,7.33
2023-01-17T18:06:30.197Z,7.60
2023-01-17T18:08:59.977Z,7.23
2023-01-17T18:11:29.088Z,15.80
2023-01-17T18:14:00.412Z,4.63
2023-01-17T18:16:32.613Z,5.37
2023-01-17T18:19:01.336Z,5.33
2023-01-17T18:21:32.402Z,5.13
2023-01-17T18:24:04.208Z,4.80
2023-01-17T18:26:34.990Z,10.77
2023-01-17T18:29:04.928Z,7.67
2023-01-17T18:31:34.414Z,7.07
2023-01-17T18:34:05.876Z,6.63
2023-01-17T18:36:35.804Z,9.30
2023-01-17T18:39:10.950Z,12.00
2023-01-17T18:41:39.686Z,9.23
2023-01-17T18:44:08.962Z,11.47
2023-01-17T18:46:38.053Z,15.27
2023-01-17T18:49:06.555Z,10.10
2023-01-17T18:51:35.761Z,9.17
2023-01-17T18:54:08.939Z,9.37
2023-01-17T18:56:37.500Z,8.57
2023-01-17T18:59:07.092Z,10.60
2023-01-17T19:01:36.769Z,13.77
2023-01-17T19:04:06.596Z,11.67
2023-01-17T19:06:36.954Z,8.23
2023-01-17T19:09:07.667Z,5.97
2023-01-17T19:11:37.054Z,10.97
2023-01-17T19:14:06.413Z,16.17
2023-01-17T19:16:39.047Z,18.10
2023-01-17T19:19:09.623Z,6.40
2023-01-17T19:21:38.225Z,6.07
2023-01-17T19:24:08.831Z,7.40
2023-01-17T19:26:38.010Z,6.83
2023-01-17T19:29:06.942Z,5.93
2023-01-17T19:31:42.487Z,4.90
2023-01-17T19:34:13.731Z,5.20
2023-01-17T19:36:42.288Z,4.17
2023-01-17T19:39:12.203Z,3.23
2023-01-17T19:41:43.551Z,3.17
2023-01-17T19:44:13.851Z,4.63
2023-01-17T19:46:43.943Z,5.70
2023-01-17T19:49:12.323Z,4.40
2023-01-17T19:51:40.791Z,6.90
2023-01-17T19:54:09.296Z,4.90
2023-01-17T19:56:38.991Z,4.13
2023-01-17T19:59:07.363Z,3.97
2023-01-17T20:01:36.252Z,3.23
2023-01-17T20:04:05.329Z,6.87
2023-01-17T20:06:35.438Z,7.23
2023-01-17T20:09:05.016Z,6.97
2023-01-17T20:11:33.367Z,9.77
2023-01-17T20:14:05.485Z,15.23
2023-01-17T20:16:36.324Z,12.73
2023-01-17T20:19:04.863Z,16.20
2023-01-17T20:21:34.383Z,12.63
2023-01-17T20:24:04.262Z,6.53
2023-01-17T20:26:38.045Z,7.53
2023-01-17T20:29:10.620Z,5.53
2023-01-17T20:31:40.581Z,11.03
2023-01-17T20:34:10.794Z,17.23
2023-01-17T20:36:40.299Z,14.23
2023-01-17T20:39:11.025Z,9.57
2023-01-17T20:41:41.334Z,12.17
2023-01-17T20:44:14.768Z,4.03
2023-01-17T20:46:43.402Z,6.20
2023-01-17T20:49:14.807Z,4.20
2023-01-17T20:51:44.303Z,6.27
2023-01-17T20:54:15.485Z,5.93
2023-01-17T20:56:46.693Z,11.17
2023-01-17T20:59:18.078Z,16.37
2023-01-17T21:01:46.932Z,15.17
2023-01-17T21:04:15.626Z,20.53
2023-01-17T21:06:45.034Z,13.93
2023-01-17T21:09:17.042Z,8.03
2023-01-17T21:11:45.453Z,14.27
2023-01-17T21:14:14.081Z,9.30
2023-01-17T21:16:44.621Z,12.50
2023-01-17T21:19:15.624Z,6.93
2023-01-17T21:21:43.963Z,6.83
2023-01-17T21:24:16.349Z,6.13
2023-01-17T21:26:45.825Z,12.13
2023-01-17T21:29:16.039Z,16.77
2023-01-17T21:31:45.964Z,12.17
2023-01-17T21:34:14.733Z,10.83
2023-01-17T21:36:44.210Z,9.63
2023-01-17T21:39:15.693Z,18.83
2023-01-17T21:41:47.823Z,7.47
2023-01-17T21:44:20.343Z,4.67
2023-01-17T21:46:54.348Z,6.47
2023-01-17T21:49:24.843Z,9.07
2023-01-17T21:52:10.707Z,8.83
2023-01-17T21:54:57.029Z,5.50
2023-01-17T21:57:42.937Z,3.83
2023-01-17T22:00:15.477Z,6.33
2023-01-17T22:02:45.473Z,6.17
2023-01-17T22:05:14.938Z,8.33
2023-01-17T22:08:04.608Z,7.43
2023-01-17T22:10:44.370Z,5.77
2023-01-17T22:13:14.295Z,9.63
2023-01-17T22:15:43.157Z,8.03
2023-01-17T22:18:14.545Z,4.87
2023-01-17T22:20:43.790Z,7.77
2023-01-17T22:23:12.554Z,5.70
2023-01-17T22:25:40.942Z,7.30
2023-01-17T22:28:09.301Z,5.40
2023-01-17T22:30:38.057Z,5.07
2023-01-17T22:33:08.878Z,5.03
2023-01-17T22:35:38.640Z,5.27
2023-01-17T22:38:06.942Z,3.63
2023-01-17T22:40:38.217Z,3.47
2023-01-17T22:43:06.624Z,5.13
2023-01-17T22:45:34.942Z,4.13
2023-01-17T22:48:03.446Z,4.40
2023-01-17T22:50:31.745Z,3.73
2023-01-17T22:53:02.662Z,3.50
2023-01-17T22:55:31.556Z,3.90
2023-01-17T22:57:59.881Z,3.20
2023-01-17T23:00:28.186Z,4.37
2023-01-17T23:02:56.749Z,5.10
2023-01-17T23:05:25.379Z,5.57
2023-01-17T23:07:53.885Z,4.23
2023-01-17T23:10:41.280Z,4.33
2023-01-17T23:13:10.779Z,4.73
2023-01-17T23:15:57.371Z,3.70
2023-01-17T23:18:43.278Z,5.20
2023-01-17T23:21:11.638Z,7.73
2023-01-17T23:23:39.964Z,4.37
2023-01-17T23:26:09.785Z,4.93
2023-01-17T23:28:37.151Z,4.43
2023-01-17T23:31:06.407Z,3.83
2023-01-17T23:33:34.888Z,4.00
2023-01-17T23:36:03.250Z,5.50
2023-01-17T23:38:33.817Z,4.03
2023-01-17T23:41:22.566Z,5.73
2023-01-17T23:43:53.403Z,3.63
2023-01-17T23:46:22.450Z,3.53
2023-01-17T23:48:50.945Z,4.47
2023-01-17T23:51:19.642Z,3.07
2023-01-17T23:53:47.959Z,3.33
2023-01-17T23:56:19.426Z,3.90
2023-01-17T23:58:48.009Z,4.60
